KJCT

Kimble County Airport

Junction, Texas, USA
METAR KJCT 230251Z AUTO 09003KT 10SM CLR 26/18 A2996 RMK AO2 SLP109 T02560178 53015
Observed Flight Rules
May-23 @ 02:51 UTC (16 minutes ago) Visual Flight Rules
Wind Visibility Clouds
90° at 3 knots 10 miles
  • Clear skies
Temperatures Readings
Current 26°C / 79°F
Dewpoint 18°C / 64°F
Humidity 61%
Altimeter 29.96" Hg
Pressure 1010.9 hPa
Elevation 522
METAR KJCT 230251Z AUTO 09003KT 10SM CLR 26/18 A2996 RMK AO2 SLP109 T02560178 53015
Observed Flight Rules
May-23 @ 02:51 UTC
(16 minutes ago)
VFR
Wind Visibility
90° at 3 knots 10 miles
Clouds
  • Clear skies
Temperature Dewpoint
26°C / 79°F 18°C / 64°F
Humidity Altimeter Pressure
61% 29.96" Hg 1010.9 hPa